Paso Robles, California
Current Conditions -  °F | °C
As of 5:53 AM on Tuesday 21 Oct 2014 (Local Time) from KPRB Reporting Station
Overcast Overcast  
Wind Chill: 57°   Ceiling: 2900
Heat Index: 57°   Visibility: 10mi
Dew Point: 49°   Wind: 12mph
Humidity: 74%   Direction: 320°NW
Pressure: 30.03"   Gusts: NA
Location:  35.67°N, 120.63°W
Report Text: KPRB 211253Z AUTO 32010KT 10SM OVC029 14/09 A3003 RMK AO2 SLP165 T01390094 TSNO
Loading
Personal Weather Stations






























Interactive Weather Map
Tropical Storm Tracking
New forecast layout! Learn more

10-Day Weather Forecast

Advertisements
Track Severe Weather on mobile